Time;durP1;ratioP1;P1;durP2;ratioP2;P2;SDS_P1;SDS_P2;PMS_P1;PMS_P2;Temp;Humidity;BMP_temperature;BMP_pressure;BME280_temperature;BME280_humidity;BME280_pressure;Samples;Min_cycle;Max_cycle;Signal;HPM_P1;HPM_P2
2023/09/15 00:00:20;;;;;;;24.73;22.43;;;23.00;96.70;;;;;;5071932;28;20198;-66
2023/09/15 00:02:48;;;;;;;32.40;22.30;;;23.00;96.70;;;;;;5053524;28;20198;-66
2023/09/15 00:05:16;;;;;;;24.40;21.97;;;23.00;96.60;;;;;;5059032;28;20704;-66
2023/09/15 00:07:44;;;;;;;24.90;19.73;;;23.00;96.50;;;;;;5044945;28;20281;-66
2023/09/15 00:10:14;;;;;;;22.57;20.00;;;23.00;96.50;;;;;;5055786;28;20203;-66
2023/09/15 00:12:42;;;;;;;23.53;18.07;;;23.00;96.50;;;;;;5072602;28;20568;-66
2023/09/15 00:15:11;;;;;;;19.07;16.83;;;23.00;96.40;;;;;;5070348;28;20203;-66
2023/09/15 00:17:40;;;;;;;21.90;17.27;;;23.00;96.40;;;;;;5063152;28;20209;-66
2023/09/15 00:20:18;;;;;;;17.53;15.70;;;22.90;96.30;;;;;;5060748;28;20621;-66
2023/09/15 00:22:51;;;;;;;15.23;13.60;;;22.90;96.30;;;;;;5071388;28;20201;-66
2023/09/15 00:25:20;;;;;;;19.50;13.27;;;22.90;96.20;;;;;;5053091;28;20271;-67
2023/09/15 00:27:49;;;;;;;17.90;12.83;;;22.90;96.00;;;;;;5053914;28;20198;-65
2023/09/15 00:30:18;;;;;;;15.67;13.03;;;22.90;96.00;;;;;;5047638;28;20297;-66
2023/09/15 00:32:48;;;;;;;15.87;13.20;;;22.80;96.00;;;;;;5047620;28;20207;-66
2023/09/15 00:35:21;;;;;;;12.93;10.93;;;22.80;96.10;;;;;;5062239;28;20205;-66
2023/09/15 00:37:50;;;;;;;13.37;10.97;;;22.70;96.10;;;;;;5056710;28;20296;-66
2023/09/15 00:40:20;;;;;;;14.03;11.37;;;22.70;96.00;;;;;;5064104;28;20621;-66
2023/09/15 00:42:50;;;;;;;9.80;8.63;;;22.70;96.00;;;;;;5054662;28;20202;-66
2023/09/15 00:45:19;;;;;;;12.10;9.20;;;22.60;95.90;;;;;;5047722;28;20202;-66
2023/09/15 00:47:58;;;;;;;12.03;8.70;;;22.60;95.80;;;;;;5051437;28;20245;-66
2023/09/15 00:50:31;;;;;;;11.60;7.63;;;22.50;95.70;;;;;;5071585;28;20194;-66
2023/09/15 00:53:09;;;;;;;9.43;7.07;;;22.50;95.70;;;;;;5060998;28;20551;-67
2023/09/15 00:55:38;;;;;;;10.27;6.37;;;22.40;95.70;;;;;;5069363;28;20205;-66
2023/09/15 00:58:11;;;;;;;10.73;6.37;;;22.40;95.60;;;;;;5061460;28;20316;-66
2023/09/15 01:00:44;;;;;;;7.73;5.87;;;22.40;95.60;;;;;;5049837;28;20270;-66
2023/09/15 01:03:17;;;;;;;11.30;6.57;;;22.40;95.60;;;;;;5045927;28;20251;-66
2023/09/15 01:05:45;;;;;;;9.23;6.50;;;22.30;95.50;;;;;;5068304;28;20549;-66
2023/09/15 01:08:12;;;;;;;6.77;6.07;;;22.30;95.50;;;;;;5062177;28;20207;-67
2023/09/15 01:10:40;;;;;;;10.57;6.20;;;22.30;95.60;;;;;;5062638;28;20202;-66
2023/09/15 01:13:07;;;;;;;7.10;6.33;;;22.30;95.70;;;;;;5069881;28;20248;-66
2023/09/15 01:16:00;;;;;;;9.00;6.37;;;22.30;95.80;;;;;;5061207;28;20264;-66
2023/09/15 01:18:50;;;;;;;13.43;6.93;;;22.30;95.90;;;;;;5062691;28;20225;-67
2023/09/15 01:21:38;;;;;;;13.03;6.50;;;22.30;95.90;;;;;;5054396;28;20286;-66
2023/09/15 01:24:44;;;;;;;6.70;5.90;;;22.30;95.90;;;;;;5054142;28;20215;-66
2023/09/15 01:27:29;;;;;;;10.23;6.30;;;22.30;96.10;;;;;;5065311;28;20222;-66
2023/09/15 01:29:59;;;;;;;8.47;5.83;;;22.30;96.10;;;;;;5064980;28;20281;-66
2023/09/15 01:32:28;;;;;;;6.87;5.27;;;22.20;96.10;;;;;;5065947;28;20208;-66
2023/09/15 01:34:55;;;;;;;10.20;5.47;;;22.20;95.80;;;;;;5070572;28;20540;-66
2023/09/15 01:37:23;;;;;;;6.37;5.47;;;22.20;95.80;;;;;;5053435;28;20198;-66
2023/09/15 01:39:52;;;;;;;8.37;5.70;;;22.10;95.70;;;;;;5053808;28;20210;-66
2023/09/15 01:42:19;;;;;;;5.50;5.00;;;22.10;95.50;;;;;;5061726;28;20198;-67
2023/09/15 01:44:47;;;;;;;6.07;5.30;;;22.10;95.20;;;;;;5065036;28;20233;-66
2023/09/15 01:47:18;;;;;;;6.63;5.47;;;22.10;95.20;;;;;;5067281;28;20616;-65
2023/09/15 01:49:47;;;;;;;8.03;4.80;;;22.10;95.40;;;;;;5070461;28;20205;-66
2023/09/15 01:52:15;;;;;;;7.33;4.87;;;22.00;95.40;;;;;;5060495;28;20205;-66
2023/09/15 01:54:42;;;;;;;5.30;4.50;;;22.10;95.60;;;;;;5063992;28;20202;-66
2023/09/15 01:57:09;;;;;;;7.47;5.30;;;22.10;95.70;;;;;;5061559;28;20201;-65
2023/09/15 01:59:36;;;;;;;6.43;4.20;;;22.10;95.80;;;;;;5051884;28;20230;-66
2023/09/15 02:02:03;;;;;;;5.10;4.53;;;22.10;95.80;;;;;;5070364;28;20212;-66
2023/09/15 02:04:32;;;;;;;6.53;4.87;;;22.10;95.60;;;;;;5063761;28;20197;-66
2023/09/15 02:06:58;;;;;;;6.90;4.30;;;22.00;95.30;;;;;;5064028;28;20198;-66
2023/09/15 02:09:26;;;;;;;7.77;4.87;;;22.00;95.20;;;;;;5069129;28;20198;-66
2023/09/15 02:11:54;;;;;;;6.70;4.63;;;22.00;95.30;;;;;;5072961;28;20213;-66
2023/09/15 02:14:21;;;;;;;5.70;4.20;;;22.00;95.40;;;;;;5076306;28;20233;-66
2023/09/15 02:16:48;;;;;;;4.90;4.50;;;22.00;95.50;;;;;;5065196;28;20210;-66
2023/09/15 02:19:16;;;;;;;8.63;5.60;;;22.00;95.60;;;;;;5068576;28;20292;-66
2023/09/15 02:21:44;;;;;;;5.00;4.33;;;22.00;95.50;;;;;;5074642;28;20274;-67
2023/09/15 02:24:12;;;;;;;4.90;4.30;;;22.00;95.20;;;;;;5073228;28;20197;-66
2023/09/15 02:26:40;;;;;;;5.27;4.17;;;21.90;95.00;;;;;;5072252;28;20194;-66
2023/09/15 02:29:07;;;;;;;7.47;4.73;;;21.90;94.90;;;;;;5062638;28;20256;-66
2023/09/15 02:31:34;;;;;;;6.17;4.40;;;21.90;94.70;;;;;;5067788;28;20228;-66
2023/09/15 02:34:02;;;;;;;6.63;4.47;;;21.90;94.60;;;;;;5069867;28;20656;-66
2023/09/15 02:36:29;;;;;;;5.53;4.70;;;21.90;94.60;;;;;;5066723;28;20288;-66
2023/09/15 02:38:56;;;;;;;6.03;5.07;;;21.90;94.60;;;;;;5066021;28;20292;-66
2023/09/15 02:41:24;;;;;;;6.07;4.87;;;21.90;94.70;;;;;;5071957;28;20198;-67
2023/09/15 02:43:51;;;;;;;5.33;4.63;;;21.90;94.70;;;;;;5047766;28;20263;-66
2023/09/15 02:46:18;;;;;;;8.63;5.33;;;21.90;94.70;;;;;;5051922;28;20242;-66
2023/09/15 02:48:45;;;;;;;6.30;5.30;;;21.90;94.70;;;;;;5062231;28;20524;-66
2023/09/15 02:51:14;;;;;;;7.90;5.23;;;21.90;94.70;;;;;;5065335;28;20202;-66
2023/09/15 02:53:42;;;;;;;5.40;4.87;;;21.90;94.90;;;;;;5055701;28;20596;-66
2023/09/15 02:56:09;;;;;;;6.73;4.70;;;21.90;95.20;;;;;;5069465;28;20213;-66
2023/09/15 02:58:37;;;;;;;6.03;5.20;;;21.90;95.30;;;;;;5065090;28;20521;-66
2023/09/15 03:01:13;;;;;;;6.73;4.77;;;21.90;95.50;;;;;;5073166;28;20276;-66
2023/09/15 03:03:43;;;;;;;7.97;5.10;;;21.90;95.70;;;;;;5065985;28;20289;-66
2023/09/15 03:06:11;;;;;;;7.40;4.67;;;22.00;95.80;;;;;;5064611;28;20226;-66
2023/09/15 03:08:38;;;;;;;6.90;5.30;;;22.00;95.90;;;;;;5066050;28;20197;-66
2023/09/15 03:11:12;;;;;;;5.90;5.00;;;22.00;96.00;;;;;;5065621;28;20205;-66
2023/09/15 03:13:40;;;;;;;5.37;4.70;;;22.00;96.00;;;;;;5070272;28;20210;-66
2023/09/15 03:16:09;;;;;;;5.93;5.10;;;22.00;96.10;;;;;;5071149;28;20206;-66
2023/09/15 03:18:37;;;;;;;9.97;5.20;;;22.00;96.10;;;;;;5066738;28;20217;-66
2023/09/15 03:21:04;;;;;;;10.00;5.73;;;22.00;96.10;;;;;;5051147;28;20280;-66
2023/09/15 03:23:32;;;;;;;8.77;5.97;;;22.00;96.10;;;;;;5061987;28;20225;-65
2023/09/15 03:26:03;;;;;;;10.27;5.30;;;22.00;96.20;;;;;;5066224;28;20296;-66
2023/09/15 03:28:35;;;;;;;7.73;5.40;;;22.00;96.30;;;;;;5064282;28;20204;-66
2023/09/15 03:31:06;;;;;;;6.47;5.40;;;22.10;96.30;;;;;;5064328;28;20201;-66
2023/09/15 03:33:33;;;;;;;6.40;5.47;;;22.00;96.40;;;;;;5062345;28;20220;-66
2023/09/15 03:36:00;;;;;;;7.93;5.10;;;22.10;96.40;;;;;;5067489;28;20230;-66
2023/09/15 03:38:28;;;;;;;7.43;5.20;;;22.00;96.20;;;;;;5068699;28;20210;-66
2023/09/15 03:40:56;;;;;;;10.33;5.30;;;22.00;96.10;;;;;;5066295;28;20190;-65
2023/09/15 03:43:25;;;;;;;7.67;5.17;;;22.00;96.10;;;;;;5068590;28;20209;-66
2023/09/15 03:45:52;;;;;;;6.57;5.53;;;22.00;96.10;;;;;;5070305;28;20213;-66
2023/09/15 03:48:20;;;;;;;6.70;5.97;;;22.00;96.10;;;;;;5081553;28;20389;-65
2023/09/15 03:50:48;;;;;;;7.03;5.13;;;22.00;96.10;;;;;;5081796;28;20206;-65
2023/09/15 03:53:15;;;;;;;8.17;5.90;;;22.00;96.20;;;;;;5080850;28;20464;-65
2023/09/15 03:55:43;;;;;;;7.20;5.90;;;22.00;96.20;;;;;;5082751;28;20197;-65
2023/09/15 03:58:10;;;;;;;9.33;5.70;;;22.00;96.20;;;;;;5067244;28;20220;-65
2023/09/15 04:00:38;;;;;;;10.17;6.17;;;21.90;96.20;;;;;;5070202;28;20225;-65
2023/09/15 04:03:05;;;;;;;7.03;5.73;;;21.90;96.20;;;;;;5074074;28;20283;-65
2023/09/15 04:05:33;;;;;;;9.33;6.13;;;21.90;96.30;;;;;;5069385;28;20710;-65
2023/09/15 04:08:01;;;;;;;11.00;6.23;;;21.90;96.30;;;;;;5072863;28;20215;-66
2023/09/15 04:10:28;;;;;;;7.93;6.10;;;21.90;96.40;;;;;;5057893;28;20210;-65
2023/09/15 04:12:55;;;;;;;7.50;6.07;;;21.80;96.40;;;;;;5086870;28;20234;-65
2023/09/15 04:15:22;;;;;;;16.27;6.20;;;21.80;96.40;;;;;;5083887;28;20212;-65
2023/09/15 04:17:50;;;;;;;7.67;5.73;;;21.80;96.50;;;;;;5082189;28;20215;-65
2023/09/15 04:20:17;;;;;;;7.63;6.80;;;21.70;96.60;;;;;;5069657;28;20233;-65
2023/09/15 04:23:01;;;;;;;6.73;6.03;;;21.70;96.70;;;;;;5061363;28;20200;-64
2023/09/15 04:25:28;;;;;;;7.73;6.93;;;21.70;96.70;;;;;;5072822;28;20271;-64
2023/09/15 04:27:55;;;;;;;6.73;5.80;;;21.70;96.80;;;;;;5084990;28;20429;-64
2023/09/15 04:30:22;;;;;;;6.87;5.60;;;21.70;96.90;;;;;;5066568;28;20709;-64
2023/09/15 04:32:53;;;;;;;6.23;5.63;;;21.60;96.90;;;;;;5056710;28;20217;-64
2023/09/15 04:35:20;;;;;;;5.23;4.73;;;21.60;96.90;;;;;;5067458;28;20208;-64
2023/09/15 04:37:47;;;;;;;7.57;6.03;;;21.60;96.80;;;;;;5084715;28;20216;-64
2023/09/15 04:40:15;;;;;;;11.57;6.57;;;21.60;96.80;;;;;;5079452;28;20308;-64
2023/09/15 04:42:45;;;;;;;7.13;5.33;;;21.60;96.80;;;;;;5056603;28;20652;-64
2023/09/15 04:45:12;;;;;;;8.83;5.83;;;21.60;96.90;;;;;;5072014;28;20294;-64
2023/09/15 04:47:40;;;;;;;7.87;5.23;;;21.60;96.90;;;;;;5074070;28;20266;-64
2023/09/15 04:50:28;;;;;;;6.20;5.60;;;21.60;96.90;;;;;;5082551;28;20221;-64
2023/09/15 04:52:55;;;;;;;7.03;5.63;;;21.60;97.00;;;;;;5079287;28;20285;-64
2023/09/15 04:55:23;;;;;;;7.60;5.73;;;21.60;97.10;;;;;;5071718;28;20197;-64
2023/09/15 04:57:51;;;;;;;8.70;6.17;;;21.60;97.10;;;;;;5071063;28;20201;-65
2023/09/15 05:00:23;;;;;;;9.20;6.70;;;21.60;97.20;;;;;;5072009;28;20217;-64
2023/09/15 05:02:59;;;;;;;6.70;5.30;;;21.60;97.10;;;;;;5067627;28;20205;-64
2023/09/15 05:05:28;;;;;;;7.90;6.27;;;21.60;97.10;;;;;;5072758;28;20205;-65
2023/09/15 05:07:58;;;;;;;7.13;6.30;;;21.60;97.00;;;;;;5066151;28;20194;-63
2023/09/15 05:10:25;;;;;;;8.07;6.00;;;21.60;97.00;;;;;;5074918;28;20522;-64
2023/09/15 05:12:53;;;;;;;6.30;5.50;;;21.60;97.00;;;;;;5074576;28;20219;-64
2023/09/15 05:15:21;;;;;;;8.67;5.77;;;21.60;97.00;;;;;;5074817;28;20217;-63
2023/09/15 05:17:48;;;;;;;8.63;5.73;;;21.60;97.10;;;;;;5072499;28;20214;-64
2023/09/15 05:20:16;;;;;;;7.67;5.60;;;21.60;97.20;;;;;;5072007;28;20691;-63
2023/09/15 05:22:43;;;;;;;6.80;6.10;;;21.70;97.40;;;;;;5070741;28;20197;-63
2023/09/15 05:25:10;;;;;;;6.50;5.90;;;21.70;97.50;;;;;;5074651;28;20219;-63
2023/09/15 05:27:38;;;;;;;6.33;5.73;;;21.70;97.50;;;;;;5069708;28;20276;-64
2023/09/15 05:30:06;;;;;;;7.87;6.47;;;21.70;97.60;;;;;;5067801;28;20216;-64
2023/09/15 05:32:36;;;;;;;9.53;6.47;;;21.70;97.60;;;;;;5072465;28;20211;-64
2023/09/15 05:35:03;;;;;;;7.60;5.90;;;21.70;97.60;;;;;;5071831;28;20279;-64
2023/09/15 05:37:30;;;;;;;6.10;5.60;;;21.70;97.60;;;;;;5086261;28;20229;-64
2023/09/15 05:39:58;;;;;;;6.97;5.77;;;21.70;97.60;;;;;;5070225;28;20221;-64
2023/09/15 05:42:25;;;;;;;6.67;6.07;;;21.70;97.60;;;;;;5074283;28;20200;-64
2023/09/15 05:44:54;;;;;;;6.17;5.60;;;21.80;97.60;;;;;;5086069;28;20208;-64
2023/09/15 05:47:22;;;;;;;8.70;6.07;;;21.80;97.60;;;;;;5084517;28;20233;-64
2023/09/15 05:49:49;;;;;;;7.27;5.80;;;21.80;97.60;;;;;;5085626;28;20205;-64
2023/09/15 05:52:17;;;;;;;8.20;7.40;;;21.80;97.50;;;;;;5085087;28;20201;-64
2023/09/15 05:54:44;;;;;;;8.50;6.60;;;21.80;97.50;;;;;;5080478;28;20225;-64
2023/09/15 05:57:11;;;;;;;8.43;6.13;;;21.90;97.50;;;;;;5060233;28;20260;-64
2023/09/15 05:59:38;;;;;;;7.27;6.57;;;21.90;97.50;;;;;;5058774;28;20264;-64
2023/09/15 06:02:07;;;;;;;12.30;6.47;;;21.90;97.70;;;;;;5062292;28;20711;-65
2023/09/15 06:04:34;;;;;;;7.83;6.90;;;21.90;97.70;;;;;;5065564;28;20601;-64
2023/09/15 06:07:01;;;;;;;10.37;7.20;;;21.90;97.80;;;;;;5049002;28;20194;-64
2023/09/15 06:09:29;;;;;;;8.37;6.80;;;21.90;97.80;;;;;;5051111;28;20222;-64
2023/09/15 06:11:56;;;;;;;10.50;7.30;;;21.90;97.80;;;;;;5064087;28;20209;-64
2023/09/15 06:14:23;;;;;;;9.03;7.20;;;21.90;97.80;;;;;;5061465;28;20201;-64
2023/09/15 06:16:50;;;;;;;7.27;6.53;;;21.90;97.70;;;;;;5060535;28;20202;-65
2023/09/15 06:19:17;;;;;;;7.80;6.80;;;22.00;97.60;;;;;;5057920;28;20538;-64
2023/09/15 06:21:44;;;;;;;6.90;6.20;;;21.90;97.60;;;;;;5060680;28;20585;-65
2023/09/15 06:24:11;;;;;;;7.17;6.07;;;21.90;97.50;;;;;;5062991;28;20214;-65
2023/09/15 06:26:38;;;;;;;9.43;6.63;;;21.90;97.40;;;;;;5060893;28;20550;-64
2023/09/15 06:29:05;;;;;;;7.30;5.80;;;21.80;97.40;;;;;;5060141;28;20213;-65
2023/09/15 06:31:33;;;;;;;8.60;6.27;;;21.70;97.50;;;;;;5042942;28;20630;-64
2023/09/15 06:34:00;;;;;;;7.77;6.73;;;21.60;97.50;;;;;;5059419;28;20691;-65
2023/09/15 06:36:27;;;;;;;7.73;6.83;;;21.60;97.70;;;;;;5059233;28;20225;-65
2023/09/15 06:38:54;;;;;;;7.10;6.17;;;21.50;97.80;;;;;;5059391;28;20633;-65
2023/09/15 06:41:21;;;;;;;6.73;4.70;;;21.40;97.80;;;;;;5061748;28;20218;-65
2023/09/15 06:43:48;;;;;;;7.67;5.37;;;21.30;97.80;;;;;;5059538;28;20585;-64
2023/09/15 06:46:21;;;;;;;9.43;5.93;;;21.30;97.80;;;;;;5059000;28;20238;-64
2023/09/15 06:48:49;;;;;;;13.73;6.10;;;21.30;98.00;;;;;;5057832;28;20201;-64
2023/09/15 06:51:16;;;;;;;16.43;6.90;;;21.20;98.10;;;;;;5061449;28;20292;-64
2023/09/15 06:53:43;;;;;;;16.67;6.83;;;21.20;98.30;;;;;;5061211;28;20230;-64
2023/09/15 06:56:10;;;;;;;15.37;6.83;;;21.10;98.50;;;;;;5064651;28;20194;-64
2023/09/15 06:58:37;;;;;;;7.90;6.00;;;21.10;98.70;;;;;;5062666;28;20209;-64
2023/09/15 07:01:04;;;;;;;14.60;7.83;;;21.10;98.90;;;;;;5063490;28;20252;-65
2023/09/15 07:11:37;;;;;;;23.83;9.77;;;21.10;99.20;;;;;;5064611;28;20190;-65
2023/09/15 07:14:04;;;;;;;13.00;8.23;;;21.10;99.30;;;;;;5064163;28;20259;-65
2023/09/15 07:16:31;;;;;;;16.70;8.50;;;21.10;99.50;;;;;;5062863;28;20209;-66
2023/09/15 07:18:59;;;;;;;12.00;7.33;;;21.10;99.60;;;;;;5061847;28;20210;-65
2023/09/15 07:21:26;;;;;;;8.70;7.07;;;21.10;99.70;;;;;;5062311;28;20225;-63
2023/09/15 07:23:54;;;;;;;15.27;8.23;;;21.20;99.70;;;;;;5060805;28;20293;-63
2023/09/15 07:26:24;;;;;;;10.67;8.23;;;21.20;99.70;;;;;;5064653;28;20206;-63
2023/09/15 07:28:51;;;;;;;11.27;7.50;;;21.20;99.50;;;;;;5035170;28;20305;-63
2023/09/15 07:31:20;;;;;;;15.60;8.30;;;21.30;99.60;;;;;;5062328;28;20277;-65
2023/09/15 07:33:47;;;;;;;16.67;7.80;;;21.20;99.60;;;;;;5047175;28;20566;-66
2023/09/15 07:36:15;;;;;;;10.20;7.37;;;21.10;99.90;;;;;;5061408;28;20202;-65
2023/09/15 07:38:42;;;;;;;11.47;7.63;;;21.10;99.80;;;;;;5064027;28;20525;-63
2023/09/15 07:41:09;;;;;;;9.57;7.13;;;21.10;99.90;;;;;;5062958;28;20217;-62
2023/09/15 07:43:38;;;;;;;11.17;7.47;;;21.10;99.90;;;;;;5066678;28;20199;-63
2023/09/15 07:46:05;;;;;;;7.50;6.70;;;21.10;99.90;;;;;;5063177;28;20206;-64
2023/09/15 07:48:43;;;;;;;10.70;6.73;;;21.10;99.90;;;;;;5062290;28;20205;-63
2023/09/15 07:51:13;;;;;;;12.50;6.97;;;21.10;99.90;;;;;;5051795;28;20816;-63
2023/09/15 07:53:41;;;;;;;9.23;7.17;;;21.20;99.90;;;;;;5066354;28;20215;-62
2023/09/15 07:56:09;;;;;;;8.30;6.93;;;21.20;99.90;;;;;;5052450;28;20284;-63
2023/09/15 07:58:36;;;;;;;10.20;7.70;;;21.20;99.90;;;;;;5064008;28;20212;-63
2023/09/15 08:01:04;;;;;;;13.97;7.63;;;21.20;99.90;;;;;;5064445;28;20213;-64
2023/09/15 08:03:31;;;;;;;10.70;6.87;;;21.20;99.90;;;;;;5061802;28;20284;-64
2023/09/15 08:05:59;;;;;;;7.87;6.80;;;21.20;99.90;;;;;;5061410;28;20199;-64
2023/09/15 08:08:28;;;;;;;9.27;7.03;;;21.20;99.90;;;;;;5062777;28;20213;-64
2023/09/15 08:10:55;;;;;;;9.63;6.90;;;21.20;99.90;;;;;;5060934;28;20224;-65
2023/09/15 08:13:22;;;;;;;10.10;7.27;;;21.20;99.90;;;;;;5066049;28;20603;-63
2023/09/15 08:15:51;;;;;;;10.57;6.83;;;21.20;99.90;;;;;;5065013;28;20209;-64
2023/09/15 08:18:19;;;;;;;10.47;7.30;;;21.30;99.90;;;;;;5064639;28;20260;-63
2023/09/15 08:20:46;;;;;;;9.03;6.87;;;21.40;99.90;;;;;;5060827;28;20297;-63
2023/09/15 08:23:13;;;;;;;7.83;6.67;;;21.50;99.90;;;;;;5062871;28;20624;-63
2023/09/15 08:25:41;;;;;;;10.60;7.17;;;21.50;99.90;;;;;;5061767;28;20629;-64
2023/09/15 08:28:08;;;;;;;8.50;6.70;;;21.60;99.90;;;;;;5062353;28;20276;-63
2023/09/15 08:30:35;;;;;;;7.73;6.10;;;21.70;99.80;;;;;;5047522;28;20676;-65
2023/09/15 08:33:05;;;;;;;8.90;6.43;;;21.70;99.70;;;;;;5064461;28;20205;-64
2023/09/15 08:35:33;;;;;;;9.60;7.00;;;21.70;99.60;;;;;;5060633;28;20442;-64
2023/09/15 08:38:00;;;;;;;10.13;7.40;;;21.70;99.50;;;;;;5058549;28;20202;-64
2023/09/15 08:40:37;;;;;;;9.67;7.00;;;21.70;99.50;;;;;;5065197;28;20210;-63
2023/09/15 08:43:05;;;;;;;8.97;6.47;;;21.70;99.50;;;;;;5060890;28;20268;-63
2023/09/15 08:45:37;;;;;;;8.07;6.43;;;21.70;99.50;;;;;;5059919;28;20198;-65
2023/09/15 08:48:05;;;;;;;8.57;7.03;;;21.70;99.50;;;;;;5065184;28;20691;-63
2023/09/15 08:50:34;;;;;;;8.70;7.37;;;21.70;99.60;;;;;;5065125;28;20212;-63
2023/09/15 08:53:02;;;;;;;10.40;6.53;;;21.70;99.50;;;;;;5069142;28;20211;-63
2023/09/15 08:55:29;;;;;;;10.37;7.37;;;21.70;99.50;;;;;;5070046;28;20210;-64
2023/09/15 08:57:57;;;;;;;7.07;6.37;;;21.70;99.50;;;;;;5038797;28;20538;-63
2023/09/15 09:00:25;;;;;;;7.40;6.47;;;21.70;99.60;;;;;;5062269;28;20257;-63
2023/09/15 09:02:52;;;;;;;12.10;6.83;;;21.70;99.50;;;;;;5064105;28;20201;-64
2023/09/15 09:05:23;;;;;;;9.27;6.27;;;21.70;99.30;;;;;;5064102;28;20617;-64
2023/09/15 09:07:51;;;;;;;6.87;6.17;;;21.70;99.10;;;;;;5066598;28;20638;-65
2023/09/15 09:10:19;;;;;;;8.57;6.73;;;21.60;99.00;;;;;;5065933;28;20293;-64
2023/09/15 09:12:47;;;;;;;7.27;6.37;;;21.60;99.20;;;;;;5057579;28;20216;-64
2023/09/15 09:15:15;;;;;;;9.80;6.40;;;21.50;99.40;;;;;;5062575;28;20255;-65
2023/09/15 09:17:43;;;;;;;9.40;6.87;;;21.50;99.60;;;;;;5058671;28;20666;-63
2023/09/15 09:20:26;;;;;;;11.27;6.03;;;21.50;99.80;;;;;;5062465;28;20205;-63
2023/09/15 09:22:54;;;;;;;7.87;6.47;;;21.50;99.90;;;;;;5061752;28;20202;-63
2023/09/15 09:25:29;;;;;;;6.77;6.07;;;21.60;99.90;;;;;;5064876;28;20204;-64
2023/09/15 09:27:56;;;;;;;11.50;7.03;;;21.60;99.90;;;;;;5061800;28;20192;-66
2023/09/15 09:30:29;;;;;;;8.77;6.53;;;21.60;99.90;;;;;;5055704;28;20672;-63
2023/09/15 09:32:57;;;;;;;7.57;6.50;;;21.70;99.90;;;;;;5059225;28;20189;-65
2023/09/15 09:35:24;;;;;;;7.00;6.27;;;21.70;99.90;;;;;;5063581;28;20221;-65
2023/09/15 09:37:56;;;;;;;7.07;6.10;;;21.80;99.90;;;;;;5064160;28;20194;-61
2023/09/15 09:40:23;;;;;;;6.40;5.67;;;21.80;99.90;;;;;;5052971;28;20222;-61
2023/09/15 09:42:51;;;;;;;6.47;5.30;;;21.80;99.90;;;;;;5059336;28;20651;-61
2023/09/15 09:45:28;;;;;;;9.50;5.73;;;21.80;99.90;;;;;;5057151;28;20285;-60
2023/09/15 09:47:56;;;;;;;6.63;5.70;;;21.90;99.90;;;;;;5060411;28;20271;-60
2023/09/15 09:50:23;;;;;;;6.40;5.80;;;22.00;99.90;;;;;;5059095;28;20260;-61
2023/09/15 09:52:51;;;;;;;6.67;5.97;;;22.10;99.90;;;;;;5062353;28;20651;-61
2023/09/15 09:55:18;;;;;;;7.90;6.57;;;22.20;99.90;;;;;;5063989;28;20198;-60
2023/09/15 09:57:46;;;;;;;6.77;6.17;;;22.30;99.90;;;;;;5060114;28;20198;-61
2023/09/15 10:00:21;;;;;;;10.93;7.23;;;22.40;99.90;;;;;;5057688;28;20186;-61
2023/09/15 10:02:49;;;;;;;8.83;6.60;;;22.50;99.90;;;;;;5056929;28;20209;-60
2023/09/15 10:05:16;;;;;;;8.60;7.20;;;22.60;99.70;;;;;;5062887;28;20198;-60
2023/09/15 10:07:45;;;;;;;7.77;6.77;;;22.70;99.90;;;;;;5059549;28;20201;-61
2023/09/15 10:10:13;;;;;;;7.53;6.80;;;22.70;99.70;;;;;;5065166;28;20248;-60
2023/09/15 10:12:41;;;;;;;7.33;6.43;;;22.80;99.50;;;;;;5061381;28;20206;-60
2023/09/15 10:15:10;;;;;;;13.27;11.20;;;22.80;99.60;;;;;;5061128;28;20194;-60
2023/09/15 10:17:37;;;;;;;16.93;15.33;;;23.00;99.80;;;;;;5061448;28;20207;-60
2023/09/15 10:20:06;;;;;;;12.07;11.07;;;23.10;99.60;;;;;;5056499;28;20205;-61
2023/09/15 10:22:34;;;;;;;9.30;8.50;;;23.20;99.60;;;;;;5043309;28;20260;-60
2023/09/15 10:25:03;;;;;;;7.47;6.73;;;23.40;99.30;;;;;;5061347;28;20200;-60
2023/09/15 10:27:30;;;;;;;7.27;6.60;;;23.50;99.20;;;;;;5063290;28;20553;-61
2023/09/15 10:30:05;;;;;;;20.70;18.73;;;23.70;98.70;;;;;;5061675;28;20194;-60
2023/09/15 10:32:39;;;;;;;22.73;20.63;;;23.80;98.50;;;;;;5060472;28;20202;-60
2023/09/15 10:35:08;;;;;;;20.23;18.43;;;23.90;98.20;;;;;;5058267;28;20202;-60
2023/09/15 10:37:42;;;;;;;21.27;19.43;;;24.10;97.70;;;;;;5063274;28;20202;-60
2023/09/15 10:40:12;;;;;;;20.03;18.13;;;24.30;97.70;;;;;;5068652;28;20288;-60
2023/09/15 10:42:51;;;;;;;16.37;14.87;;;24.50;97.70;;;;;;5065536;28;20634;-60
2023/09/15 10:45:18;;;;;;;15.17;13.70;;;24.70;97.40;;;;;;5062597;28;20198;-61
2023/09/15 10:47:56;;;;;;;13.43;12.07;;;24.90;96.80;;;;;;5060876;28;20237;-61
2023/09/15 10:50:31;;;;;;;10.50;9.53;;;25.10;96.30;;;;;;5065101;28;20190;-61
2023/09/15 10:53:08;;;;;;;11.23;9.60;;;25.30;95.50;;;;;;5060364;28;20276;-61
2023/09/15 10:55:37;;;;;;;7.47;6.67;;;25.40;94.70;;;;;;5067936;28;20193;-61
2023/09/15 10:58:04;;;;;;;6.40;5.80;;;25.50;94.30;;;;;;5064114;28;20228;-61
2023/09/15 11:00:33;;;;;;;6.80;5.60;;;25.60;94.30;;;;;;5066499;28;20209;-61
2023/09/15 11:03:01;;;;;;;5.17;4.67;;;25.70;93.90;;;;;;5064726;28;20309;-61
2023/09/15 11:05:29;;;;;;;10.03;4.80;;;25.80;93.50;;;;;;5040388;28;20264;-61
2023/09/15 11:07:57;;;;;;;4.93;4.13;;;25.90;92.80;;;;;;5063538;28;20225;-61
2023/09/15 11:10:30;;;;;;;5.03;4.43;;;26.00;92.20;;;;;;5068727;28;20587;-61
2023/09/15 11:13:01;;;;;;;4.97;4.57;;;26.20;91.80;;;;;;5064443;28;20633;-61
2023/09/15 11:15:28;;;;;;;4.87;4.40;;;26.30;91.90;;;;;;5067374;28;20265;-61
2023/09/15 11:17:56;;;;;;;4.70;4.30;;;26.50;91.30;;;;;;5062655;28;20256;-61
2023/09/15 11:20:23;;;;;;;4.83;4.43;;;26.60;91.00;;;;;;5063959;28;20510;-61
2023/09/15 11:22:55;;;;;;;5.83;4.87;;;26.70;90.90;;;;;;5056918;28;20218;-61
2023/09/15 11:25:22;;;;;;;5.73;5.23;;;26.80;90.30;;;;;;5061828;28;20201;-61
2023/09/15 11:27:50;;;;;;;5.47;4.27;;;26.90;90.40;;;;;;5049495;28;20205;-61
2023/09/15 11:30:18;;;;;;;6.33;4.30;;;27.00;90.10;;;;;;5053482;28;20209;-61
2023/09/15 11:32:45;;;;;;;5.83;5.33;;;27.10;89.60;;;;;;5045358;28;20212;-61
2023/09/15 11:35:12;;;;;;;5.07;4.40;;;27.10;87.30;;;;;;5062176;28;20213;-61
2023/09/15 11:37:41;;;;;;;5.07;4.53;;;27.10;88.00;;;;;;5058927;28;20212;-61
2023/09/15 11:40:19;;;;;;;6.03;4.17;;;27.10;87.80;;;;;;5064050;28;20201;-61
2023/09/15 11:42:56;;;;;;;4.73;4.33;;;27.20;87.80;;;;;;5064005;28;20213;-61
2023/09/15 11:45:28;;;;;;;4.97;4.50;;;27.20;86.30;;;;;;5065282;28;20656;-61
2023/09/15 11:47:58;;;;;;;4.90;4.40;;;27.20;85.30;;;;;;5064132;28;20337;-61
2023/09/15 11:50:26;;;;;;;4.70;4.30;;;27.20;84.40;;;;;;5061079;28;20517;-60
2023/09/15 11:52:53;;;;;;;4.20;3.70;;;27.20;83.30;;;;;;5058443;28;20653;-61
2023/09/15 11:55:22;;;;;;;4.33;3.93;;;27.20;83.60;;;;;;5069485;28;20235;-60
2023/09/15 11:57:52;;;;;;;5.70;4.47;;;27.20;83.60;;;;;;5065293;28;20226;-60
2023/09/15 12:00:21;;;;;;;4.37;4.00;;;27.30;83.00;;;;;;5064164;28;20201;-60
2023/09/15 12:02:50;;;;;;;5.53;3.53;;;27.20;82.00;;;;;;5069665;28;20218;-61
2023/09/15 12:05:20;;;;;;;3.90;3.57;;;27.20;83.00;;;;;;5069586;28;20202;-61
2023/09/15 12:07:48;;;;;;;4.30;3.83;;;27.30;83.40;;;;;;5068429;28;20687;-60
2023/09/15 12:10:19;;;;;;;4.07;3.77;;;27.30;83.00;;;;;;5068319;28;20198;-61
2023/09/15 12:12:46;;;;;;;4.93;3.60;;;27.40;82.40;;;;;;5057170;28;20194;-61
2023/09/15 12:15:14;;;;;;;4.57;3.67;;;27.30;82.40;;;;;;5062170;28;20206;-60
2023/09/15 12:17:44;;;;;;;7.17;3.80;;;27.30;83.40;;;;;;5065301;28;20206;-60
2023/09/15 12:20:12;;;;;;;4.03;3.63;;;27.30;83.70;;;;;;5065308;28;20691;-61
2023/09/15 12:22:41;;;;;;;4.67;4.10;;;27.30;82.90;;;;;;5067185;28;20228;-61
2023/09/15 12:25:13;;;;;;;4.27;3.87;;;27.30;83.10;;;;;;5066168;28;20201;-61
2023/09/15 12:27:41;;;;;;;4.13;3.83;;;27.30;84.10;;;;;;5059146;28;20228;-61
2023/09/15 12:30:11;;;;;;;6.17;4.40;;;27.40;83.80;;;;;;5046248;28;20207;-61
2023/09/15 12:32:38;;;;;;;4.37;3.97;;;27.50;83.60;;;;;;5060629;28;20205;-61
2023/09/15 12:35:13;;;;;;;4.50;4.10;;;27.40;83.20;;;;;;5064579;28;20291;-61
2023/09/15 12:37:42;;;;;;;4.37;3.97;;;27.20;82.90;;;;;;5069276;28;20590;-61
2023/09/15 12:40:11;;;;;;;3.47;3.27;;;27.10;82.70;;;;;;5063430;28;20236;-62
2023/09/15 12:42:38;;;;;;;3.40;2.90;;;27.10;81.80;;;;;;5059343;28;20308;-61
2023/09/15 12:45:06;;;;;;;6.50;3.60;;;27.10;82.10;;;;;;5057148;28;20201;-61
2023/09/15 12:47:34;;;;;;;3.60;3.00;;;27.10;82.90;;;;;;5060980;28;20248;-61
2023/09/15 12:50:02;;;;;;;2.73;2.53;;;27.10;82.60;;;;;;5063493;28;20241;-62
2023/09/15 12:52:32;;;;;;;4.60;3.37;;;27.20;82.60;;;;;;5067067;28;20279;-62
2023/09/15 12:54:59;;;;;;;3.50;3.20;;;27.40;82.10;;;;;;5066612;28;20205;-62
2023/09/15 12:57:26;;;;;;;3.70;2.93;;;27.50;81.40;;;;;;5063411;28;20202;-62
2023/09/15 12:59:53;;;;;;;3.30;2.97;;;27.50;79.10;;;;;;5061285;28;20262;-62